Time;durP1;ratioP1;P1;durP2;ratioP2;P2;SDS_P1;SDS_P2;PMS_P1;PMS_P2;Temp;Humidity;BMP_temperature;BMP_pressure;BME280_temperature;BME280_humidity;BME280_pressure;Samples;Min_cycle;Max_cycle;Signal;HPM_P1;HPM_P2
2021/07/31 00:01:49;;;;;;;7.57;2.65;;;;;6.20;101973.00;;;;5106533;28;20082;-80
2021/07/31 00:04:15;;;;;;;4.80;2.00;;;;;6.00;102002.00;;;;5107725;28;20023;-81
2021/07/31 00:06:42;;;;;;;6.57;2.10;;;;;5.90;101973.00;;;;5108017;27;20436;-79
2021/07/31 00:09:08;;;;;;;7.28;2.47;;;;;5.80;101999.00;;;;5106862;28;20110;-81
2021/07/31 00:11:35;;;;;;;7.15;2.45;;;;;5.70;101977.00;;;;5107524;28;20023;-81
2021/07/31 00:14:32;;;;;;;6.93;2.53;;;;;5.70;102007.00;;;;5107553;28;20043;-79
2021/07/31 00:16:59;;;;;;;6.72;2.50;;;;;5.50;101968.00;;;;5107504;27;20127;-80
2021/07/31 00:19:26;;;;;;;9.52;3.20;;;;;5.50;101994.00;;;;5108629;28;20112;-80
2021/07/31 00:21:52;;;;;;;6.45;3.67;;;;;5.40;102008.00;;;;5107581;28;20503;-81
2021/07/31 00:24:19;;;;;;;7.95;3.67;;;;;5.30;101986.00;;;;5107510;27;20450;-79
2021/07/31 00:26:45;;;;;;;5.97;2.88;;;;;5.20;102018.00;;;;5105602;28;20567;-82
2021/07/31 00:29:12;;;;;;;7.63;3.80;;;;;5.10;102027.00;;;;5106444;28;20075;-82
2021/07/31 00:31:39;;;;;;;18.83;4.28;;;;;5.10;102021.00;;;;5108180;28;20028;-82
2021/07/31 00:34:05;;;;;;;14.93;4.25;;;;;5.10;101981.00;;;;5107699;28;20042;-82
2021/07/31 00:36:32;;;;;;;10.27;4.60;;;;;5.10;101979.00;;;;5107229;27;20040;-80
2021/07/31 00:38:59;;;;;;;12.80;4.82;;;;;5.10;102000.00;;;;5107703;28;20038;-80
2021/07/31 00:41:25;;;;;;;11.90;4.68;;;;;5.10;102006.00;;;;5107363;28;20593;-80
2021/07/31 00:43:52;;;;;;;9.38;4.45;;;;;5.00;102022.00;;;;5107160;28;20050;-82
2021/07/31 00:46:18;;;;;;;7.00;3.70;;;;;5.00;101994.00;;;;5107410;28;20035;-80
2021/07/31 00:48:46;;;;;;;10.30;5.22;;;;;5.00;101957.00;;;;5106096;27;20031;-80
2021/07/31 00:51:15;;;;;;;13.38;5.05;;;;;5.00;101976.00;;;;5106537;28;20035;-80
2021/07/31 00:53:44;;;;;;;11.35;4.55;;;;;4.90;101963.00;;;;5107159;28;20034;-81
2021/07/31 00:56:12;;;;;;;7.30;3.50;;;;;4.80;101996.00;;;;5107117;28;20023;-79
2021/07/31 00:58:39;;;;;;;7.57;3.58;;;;;4.80;101965.00;;;;5107537;28;20497;-81
2021/07/31 01:01:05;;;;;;;7.32;3.83;;;;;4.80;101993.00;;;;5106863;28;20050;-80
2021/07/31 01:03:32;;;;;;;11.27;4.15;;;;;4.70;101983.00;;;;5106660;28;20023;-78
2021/07/31 01:05:59;;;;;;;8.43;4.40;;;;;4.70;101985.00;;;;5107139;28;20047;-79
2021/07/31 01:08:26;;;;;;;12.02;4.40;;;;;4.70;101976.00;;;;5106896;28;20061;-81
2021/07/31 01:10:54;;;;;;;8.32;4.57;;;;;4.60;101982.00;;;;5106577;28;20023;-78
2021/07/31 01:13:21;;;;;;;9.85;4.30;;;;;4.70;101976.00;;;;5106840;28;20024;-79
2021/07/31 01:15:58;;;;;;;6.13;3.88;;;;;4.60;101987.00;;;;5107429;28;20393;-80
2021/07/31 01:18:24;;;;;;;10.93;4.05;;;;;4.60;101972.00;;;;5107082;28;20061;-80
2021/07/31 01:20:51;;;;;;;7.40;3.28;;;;;4.50;101963.00;;;;5105384;28;20023;-80
2021/07/31 01:23:18;;;;;;;8.85;3.67;;;;;4.50;101969.00;;;;5106089;28;20064;-79
2021/07/31 01:25:44;;;;;;;9.60;3.38;;;;;4.50;101991.00;;;;5107297;28;20027;-81
2021/07/31 01:28:11;;;;;;;7.75;3.30;;;;;4.50;101957.00;;;;5106534;28;20042;-82
2021/07/31 01:30:37;;;;;;;9.60;3.88;;;;;4.50;101979.00;;;;5107779;28;20043;-81
2021/07/31 01:33:04;;;;;;;9.68;3.00;;;;;4.60;101969.00;;;;5105990;28;20066;-81
2021/07/31 01:35:31;;;;;;;7.93;3.17;;;;;4.50;101995.00;;;;5107140;28;20024;-79
2021/07/31 01:37:58;;;;;;;9.98;3.55;;;;;4.50;101982.00;;;;5106413;28;20635;-79
2021/07/31 01:40:24;;;;;;;7.38;2.95;;;;;4.50;101967.00;;;;5106417;28;20173;-81
2021/07/31 01:42:51;;;;;;;8.45;3.10;;;;;4.40;101992.00;;;;5106838;28;20032;-80
2021/07/31 01:45:17;;;;;;;8.05;3.45;;;;;4.40;101995.00;;;;5106842;28;20028;-80
2021/07/31 01:47:44;;;;;;;7.47;2.90;;;;;4.40;101965.00;;;;5105494;28;20039;-81
2021/07/31 01:50:11;;;;;;;9.80;3.75;;;;;4.40;101988.00;;;;5106688;28;20051;-82
2021/07/31 01:52:38;;;;;;;9.95;4.13;;;;;4.40;101993.00;;;;5106507;28;20027;-79
2021/07/31 01:55:04;;;;;;;9.52;3.35;;;;;4.40;102000.00;;;;5107175;28;20038;-80
2021/07/31 01:57:31;;;;;;;6.68;4.20;;;;;4.50;101966.00;;;;5107352;28;20031;-82
2021/07/31 01:59:58;;;;;;;5.10;3.38;;;;;4.40;101985.00;;;;5106807;28;20027;-79
2021/07/31 02:02:24;;;;;;;8.55;3.85;;;;;4.40;101970.00;;;;5106794;28;20051;-80
2021/07/31 02:04:51;;;;;;;9.52;3.20;;;;;4.30;101975.00;;;;5105342;28;20482;-80
2021/07/31 02:07:18;;;;;;;9.80;2.97;;;;;4.30;102002.00;;;;5107137;28;20087;-80
2021/07/31 02:09:44;;;;;;;8.30;2.80;;;;;4.30;101976.00;;;;5106332;28;20027;-81
2021/07/31 02:12:11;;;;;;;9.60;2.50;;;;;4.30;101983.00;;;;5106271;28;20043;-80
2021/07/31 02:14:37;;;;;;;9.85;2.78;;;;;4.20;102011.00;;;;5106172;28;20027;-80
2021/07/31 02:17:04;;;;;;;9.80;3.83;;;;;4.20;101973.00;;;;5105260;28;20038;-79
2021/07/31 02:19:31;;;;;;;6.05;3.03;;;;;4.10;101976.00;;;;5104681;28;20036;-79
2021/07/31 02:22:01;;;;;;;7.50;2.70;;;;;4.20;101981.00;;;;5107122;28;20125;-81
2021/07/31 02:24:28;;;;;;;9.77;3.00;;;;;4.20;102004.00;;;;5106641;28;20080;-79
2021/07/31 02:26:55;;;;;;;10.15;2.72;;;;;4.20;101993.00;;;;5111124;28;20059;-80
2021/07/31 02:29:21;;;;;;;11.93;3.10;;;;;4.20;101984.00;;;;5108667;28;20044;-80
2021/07/31 02:31:48;;;;;;;8.98;2.60;;;;;4.20;101963.00;;;;5108937;28;20067;-80
2021/07/31 02:34:14;;;;;;;9.05;2.50;;;;;4.10;101964.00;;;;5110796;28;20027;-80
2021/07/31 02:36:41;;;;;;;3.22;2.33;;;;;4.10;101975.00;;;;5108393;28;20035;-80
2021/07/31 02:39:07;;;;;;;9.65;3.92;;;;;4.20;101957.00;;;;5110132;28;20123;-80
2021/07/31 02:41:34;;;;;;;11.65;3.15;;;;;4.20;101979.00;;;;5110530;28;20035;-81
2021/07/31 02:44:01;;;;;;;8.23;2.47;;;;;4.20;101975.00;;;;5109742;28;20478;-79
2021/07/31 02:46:27;;;;;;;10.07;3.58;;;;;4.20;101976.00;;;;5109529;28;20126;-81
2021/07/31 02:48:54;;;;;;;8.90;2.60;;;;;4.20;101986.00;;;;5110077;27;20416;-81
2021/07/31 02:51:20;;;;;;;7.95;3.03;;;;;4.20;101989.00;;;;5110772;28;20031;-80
2021/07/31 02:53:47;;;;;;;5.15;2.33;;;;;4.20;101975.00;;;;5110432;28;20023;-80
2021/07/31 02:56:13;;;;;;;11.55;3.03;;;;;4.20;102013.00;;;;5109501;28;20040;-79
2021/07/31 02:58:40;;;;;;;8.60;2.88;;;;;4.20;101975.00;;;;5108820;28;20122;-80
2021/07/31 03:01:10;;;;;;;12.95;3.58;;;;;4.20;102013.00;;;;5109525;28;20038;-80
2021/07/31 03:03:37;;;;;;;6.63;2.83;;;;;4.00;101956.00;;;;5109619;28;20035;-80
2021/07/31 03:06:04;;;;;;;7.18;2.58;;;;;4.00;101955.00;;;;5109806;28;20028;-81
2021/07/31 03:08:31;;;;;;;10.20;3.95;;;;;4.00;101994.00;;;;5109617;28;20039;-81
2021/07/31 03:11:04;;;;;;;3.75;2.22;;;;;4.10;101943.00;;;;5109890;28;20027;-81
2021/07/31 03:13:31;;;;;;;5.57;2.28;;;;;4.10;101955.00;;;;5109389;28;20055;-80
2021/07/31 03:15:58;;;;;;;4.10;2.40;;;;;4.00;101969.00;;;;5109498;28;20107;-80
2021/07/31 03:18:25;;;;;;;4.43;2.58;;;;;4.00;101951.00;;;;5109442;28;20023;-80
2021/07/31 03:20:54;;;;;;;5.50;2.55;;;;;3.80;101952.00;;;;5108924;28;20390;-81
2021/07/31 03:23:24;;;;;;;7.15;2.95;;;;;3.90;101994.00;;;;5108887;27;20035;-81
2021/07/31 03:25:59;;;;;;;7.40;3.10;;;;;3.90;101991.00;;;;5108641;28;20035;-81
2021/07/31 03:28:33;;;;;;;7.50;3.00;;;;;3.80;101972.00;;;;5108788;28;20066;-80
2021/07/31 03:31:00;;;;;;;5.15;2.60;;;;;3.80;101972.00;;;;5109315;28;20050;-79
2021/07/31 03:33:28;;;;;;;6.72;2.80;;;;;3.90;101956.00;;;;5109266;28;20023;-80
2021/07/31 03:35:55;;;;;;;11.55;3.25;;;;;3.80;101954.00;;;;5107763;28;20502;-80
2021/07/31 03:38:22;;;;;;;15.38;3.53;;;;;3.80;101992.00;;;;5109514;28;20474;-81
2021/07/31 03:40:49;;;;;;;10.93;3.72;;;;;3.80;101961.00;;;;5109513;28;20027;-80
2021/07/31 03:43:16;;;;;;;9.85;3.40;;;;;3.70;101948.00;;;;5108830;28;20494;-81
2021/07/31 03:45:42;;;;;;;9.15;2.97;;;;;3.70;101955.00;;;;5108358;28;20070;-82
2021/07/31 03:48:09;;;;;;;7.45;3.00;;;;;3.70;101990.00;;;;5108383;28;20760;-82
2021/07/31 03:50:42;;;;;;;9.82;2.72;;;;;3.70;101954.00;;;;5109203;28;20042;-80
2021/07/31 03:53:09;;;;;;;5.22;2.50;;;;;3.70;101947.00;;;;5108667;28;20420;-80
2021/07/31 03:55:36;;;;;;;6.40;2.80;;;;;3.70;101955.00;;;;5108441;28;20123;-80
2021/07/31 03:58:04;;;;;;;9.40;2.83;;;;;3.70;101933.00;;;;5109238;28;20752;-81
2021/07/31 04:00:31;;;;;;;5.18;2.67;;;;;3.80;101959.00;;;;5108096;28;20031;-80
2021/07/31 04:02:58;;;;;;;7.40;3.70;;;;;3.70;101971.00;;;;5107513;27;20417;-80
2021/07/31 04:05:24;;;;;;;8.93;3.30;;;;;3.60;101968.00;;;;5108184;28;20063;-81
2021/07/31 04:07:51;;;;;;;11.30;4.97;;;;;3.60;101961.00;;;;5107832;28;20124;-81
2021/07/31 04:10:17;;;;;;;8.60;4.63;;;;;3.70;101924.00;;;;5108971;28;20027;-79
2021/07/31 04:12:44;;;;;;;9.82;3.75;;;;;3.70;101911.00;;;;5108721;28;20486;-79
2021/07/31 04:15:11;;;;;;;13.18;4.20;;;;;3.70;101947.00;;;;5108412;28;20089;-80
2021/07/31 04:17:37;;;;;;;11.90;4.15;;;;;3.70;101950.00;;;;5108584;28;20114;-81
2021/07/31 04:20:04;;;;;;;14.73;8.02;;;;;3.70;101922.00;;;;5108906;28;20034;-81
2021/07/31 04:22:31;;;;;;;12.15;5.50;;;;;3.70;101941.00;;;;5107621;28;20059;-81
2021/07/31 04:24:57;;;;;;;11.70;5.43;;;;;3.60;101936.00;;;;5108113;28;20089;-81
2021/07/31 04:27:25;;;;;;;11.48;5.18;;;;;3.50;101907.00;;;;5108267;28;20136;-80
2021/07/31 04:29:51;;;;;;;8.75;4.30;;;;;3.50;101898.00;;;;5108056;28;20061;-80
2021/07/31 04:32:18;;;;;;;10.70;4.72;;;;;3.40;101931.00;;;;5108427;28;20035;-80
2021/07/31 04:34:44;;;;;;;9.80;4.40;;;;;3.40;101941.00;;;;5107685;28;20049;-79
2021/07/31 04:37:11;;;;;;;6.80;4.35;;;;;3.40;101909.00;;;;5107799;28;20031;-79
2021/07/31 04:39:38;;;;;;;12.18;4.28;;;;;3.30;101915.00;;;;5108071;28;20035;-80
2021/07/31 04:42:05;;;;;;;12.88;5.00;;;;;3.30;101907.00;;;;5108683;28;20024;-80
2021/07/31 04:44:32;;;;;;;9.05;4.82;;;;;3.30;101920.00;;;;5107600;28;20405;-79
2021/07/31 04:46:58;;;;;;;11.32;4.88;;;;;3.30;101933.00;;;;5107574;28;20035;-80
2021/07/31 04:49:25;;;;;;;12.80;4.97;;;;;3.20;101899.00;;;;5106873;28;20655;-80
2021/07/31 04:51:52;;;;;;;14.15;5.32;;;;;3.10;101881.00;;;;5107877;28;20063;-80
2021/07/31 04:54:18;;;;;;;12.40;5.57;;;;;3.10;101872.00;;;;5107824;28;20020;-80
2021/07/31 04:56:45;;;;;;;11.27;5.53;;;;;3.00;101923.00;;;;5107682;28;20038;-80
2021/07/31 04:59:11;;;;;;;13.38;5.25;;;;;3.00;101911.00;;;;5107680;28;20016;-79
2021/07/31 05:01:38;;;;;;;11.23;5.30;;;;;3.00;101918.00;;;;5107742;28;20386;-79
2021/07/31 05:04:04;;;;;;;13.00;5.38;;;;;2.90;101875.00;;;;5108153;28;20031;-80
2021/07/31 05:06:31;;;;;;;11.00;5.07;;;;;2.90;101888.00;;;;5107749;28;20030;-79
2021/07/31 05:08:58;;;;;;;11.50;5.50;;;;;2.90;101889.00;;;;5107261;28;20036;-79
2021/07/31 05:11:24;;;;;;;12.75;5.15;;;;;2.90;101857.00;;;;5107294;28;20038;-79
2021/07/31 05:13:51;;;;;;;9.18;4.38;;;;;2.90;101882.00;;;;5106913;28;20133;-79
2021/07/31 05:16:18;;;;;;;11.18;5.65;;;;;2.90;101877.00;;;;5107145;28;20479;-79
2021/07/31 05:18:45;;;;;;;10.18;5.93;;;;;2.80;101864.00;;;;5107125;28;20024;-79
2021/07/31 05:21:12;;;;;;;13.93;5.00;;;;;2.70;101888.00;;;;5107577;28;20366;-79
2021/07/31 05:23:39;;;;;;;10.57;4.95;;;;;2.70;101864.00;;;;5107167;28;20035;-79
2021/07/31 05:26:12;;;;;;;12.93;5.32;;;;;2.60;101882.00;;;;5108019;28;20032;-79
2021/07/31 05:28:39;;;;;;;12.27;6.03;;;;;2.60;101856.00;;;;5106878;28;20559;-80
2021/07/31 05:31:05;;;;;;;9.20;4.85;;;;;2.60;101882.00;;;;5107841;28;20027;-79
2021/07/31 05:33:32;;;;;;;13.55;5.20;;;;;2.50;101895.00;;;;5105605;28;20039;-79
2021/07/31 05:35:58;;;;;;;13.10;5.18;;;;;2.40;101870.00;;;;5107248;28;20487;-79
2021/07/31 05:38:25;;;;;;;12.60;4.53;;;;;2.40;101891.00;;;;5106570;28;20399;-79
2021/07/31 05:40:51;;;;;;;8.25;4.50;;;;;2.30;101871.00;;;;5106436;28;20042;-79
2021/07/31 05:43:18;;;;;;;14.07;4.57;;;;;2.40;101877.00;;;;5105513;28;20032;-79
2021/07/31 05:45:46;;;;;;;15.18;4.88;;;;;2.40;101880.00;;;;5105596;28;20016;-79
2021/07/31 05:48:13;;;;;;;13.15;4.63;;;;;2.30;101872.00;;;;5107715;28;20416;-79
2021/07/31 05:50:39;;;;;;;11.82;4.35;;;;;2.20;101874.00;;;;5107279;28;20028;-79
2021/07/31 05:53:06;;;;;;;14.13;4.32;;;;;2.20;101850.00;;;;5107036;28;20024;-79
2021/07/31 05:55:32;;;;;;;8.48;4.20;;;;;2.10;101837.00;;;;5106905;28;20023;-79
2021/07/31 05:57:59;;;;;;;11.85;5.28;;;;;2.10;101865.00;;;;5106898;28;20038;-79
2021/07/31 06:00:25;;;;;;;18.65;5.55;;;;;2.10;101892.00;;;;5107932;28;20041;-79
2021/07/31 06:02:52;;;;;;;9.18;5.65;;;;;2.10;101880.00;;;;5110752;28;20513;-79
2021/07/31 06:05:19;;;;;;;11.20;4.65;;;;;2.10;101828.00;;;;5110528;28;20055;-79
2021/07/31 06:07:45;;;;;;;7.90;4.25;;;;;2.20;101871.00;;;;5111083;28;20023;-79
2021/07/31 06:10:12;;;;;;;27.48;5.95;;;;;2.20;101852.00;;;;5109539;28;20042;-79
2021/07/31 06:12:38;;;;;;;8.38;4.72;;;;;2.30;101873.00;;;;5110678;28;20513;-79
2021/07/31 06:15:05;;;;;;;11.82;4.53;;;;;2.20;101873.00;;;;5109086;28;20520;-80
2021/07/31 06:17:32;;;;;;;9.45;4.78;;;;;2.20;101878.00;;;;5110373;28;20066;-80
2021/07/31 06:20:00;;;;;;;7.30;4.18;;;;;2.30;101832.00;;;;5110488;28;20442;-80
2021/07/31 06:22:26;;;;;;;13.35;4.10;;;;;2.40;101824.00;;;;5110532;28;20046;-79
2021/07/31 06:24:53;;;;;;;12.70;4.70;;;;;2.50;101853.00;;;;5108979;28;20027;-80
2021/07/31 06:27:19;;;;;;;11.68;4.95;;;;;2.50;101857.00;;;;5110157;28;20030;-79
2021/07/31 06:29:46;;;;;;;13.93;7.25;;;;;2.60;101844.00;;;;5108871;28;20066;-80
2021/07/31 06:32:12;;;;;;;12.98;6.28;;;;;2.70;101817.00;;;;5110682;28;20062;-80
2021/07/31 06:34:39;;;;;;;13.70;7.00;;;;;2.70;101838.00;;;;5110791;27;20023;-80
2021/07/31 06:37:05;;;;;;;11.23;6.03;;;;;2.70;101851.00;;;;5110404;28;20023;-80
2021/07/31 06:39:32;;;;;;;12.55;6.57;;;;;2.70;101835.00;;;;5110071;28;20080;-80
2021/07/31 06:41:59;;;;;;;17.17;6.28;;;;;2.60;101828.00;;;;5109869;28;20429;-79
2021/07/31 06:44:25;;;;;;;20.65;7.43;;;;;2.60;101825.00;;;;5108594;28;20031;-79
2021/07/31 06:46:52;;;;;;;13.05;7.32;;;;;2.60;101841.00;;;;5108784;28;20107;-80
2021/07/31 06:49:18;;;;;;;13.68;7.10;;;;;2.50;101845.00;;;;5109915;28;20081;-79
2021/07/31 06:51:47;;;;;;;21.70;7.07;;;;;2.40;101807.00;;;;5108369;28;20027;-80
2021/07/31 06:54:13;;;;;;;13.70;7.68;;;;;2.30;101838.00;;;;5109961;28;20027;-79
2021/07/31 06:56:40;;;;;;;18.17;7.65;;;;;2.30;101840.00;;;;5110114;28;20028;-79
2021/07/31 06:59:07;;;;;;;13.15;7.20;;;;;2.20;101815.00;;;;5110097;28;20101;-79
2021/07/31 07:01:33;;;;;;;14.23;7.65;;;;;2.20;101858.00;;;;5108449;28;20059;-80
2021/07/31 07:04:00;;;;;;;10.23;6.70;;;;;2.20;101845.00;;;;5109463;28;20043;-80
2021/07/31 07:06:26;;;;;;;11.32;6.72;;;;;2.20;101811.00;;;;5109847;28;20035;-80
2021/07/31 07:08:53;;;;;;;17.70;7.07;;;;;2.30;101808.00;;;;5108230;28;20409;-80
2021/07/31 07:11:19;;;;;;;17.75;7.82;;;;;2.30;101790.00;;;;5109057;28;20040;-80
2021/07/31 07:13:46;;;;;;;16.08;8.38;;;;;2.20;101795.00;;;;5109691;28;20513;-80
2021/07/31 07:16:13;;;;;;;15.38;7.70;;;;;2.20;101823.00;;;;5109686;28;20053;-80
2021/07/31 07:18:40;;;;;;;11.07;6.82;;;;;2.20;101821.00;;;;5109523;28;20031;-80
2021/07/31 07:21:08;;;;;;;10.32;7.13;;;;;2.00;101810.00;;;;5109794;28;20032;-80
2021/07/31 07:23:36;;;;;;;15.50;6.97;;;;;2.00;101774.00;;;;5109740;28;20432;-80
2021/07/31 07:26:07;;;;;;;9.55;6.68;;;;;1.90;101782.00;;;;5109353;28;20040;-80
2021/07/31 07:28:33;;;;;;;16.02;6.88;;;;;1.80;101823.00;;;;5109406;28;20059;-80
2021/07/31 07:31:00;;;;;;;13.07;7.35;;;;;1.70;101779.00;;;;5108240;28;20036;-79
2021/07/31 07:33:26;;;;;;;21.63;8.10;;;;;1.70;101774.00;;;;5107840;27;20035;-79
2021/07/31 07:35:53;;;;;;;17.13;9.80;;;;;1.60;101801.00;;;;5109047;28;20023;-79
2021/07/31 07:38:20;;;;;;;16.98;9.50;;;;;1.60;101756.00;;;;5108552;28;20074;-79
2021/07/31 07:40:46;;;;;;;20.25;8.93;;;;;1.60;101803.00;;;;5109549;28;20058;-79
2021/07/31 07:43:13;;;;;;;12.57;7.70;;;;;1.50;101771.00;;;;5109375;27;20437;-79
2021/07/31 07:45:40;;;;;;;18.75;7.78;;;;;1.50;101784.00;;;;5109266;28;20047;-79
2021/07/31 07:48:06;;;;;;;15.45;8.15;;;;;1.60;101810.00;;;;5109165;27;20039;-79
2021/07/31 07:50:34;;;;;;;19.95;9.07;;;;;1.60;101794.00;;;;5108471;27;20020;-79
2021/07/31 07:53:00;;;;;;;17.80;8.85;;;;;1.60;101798.00;;;;5107592;28;20040;-79
2021/07/31 07:55:27;;;;;;;14.38;8.98;;;;;1.50;101782.00;;;;5107337;28;20028;-79
2021/07/31 07:57:54;;;;;;;13.68;8.05;;;;;1.50;101817.00;;;;5108264;28;20106;-80
2021/07/31 08:00:21;;;;;;;18.50;7.97;;;;;1.40;101820.00;;;;5108808;28;20134;-79
2021/07/31 08:02:47;;;;;;;12.02;7.05;;;;;1.30;101810.00;;;;5107000;28;20059;-80
2021/07/31 08:05:15;;;;;;;12.43;7.68;;;;;1.40;101788.00;;;;5108003;28;20528;-80
2021/07/31 08:07:43;;;;;;;11.85;7.35;;;;;1.50;101792.00;;;;5108985;27;20074;-79
2021/07/31 08:10:11;;;;;;;16.63;7.88;;;;;1.50;101838.00;;;;5108760;28;20035;-79
2021/07/31 08:12:38;;;;;;;11.45;6.45;;;;;1.50;101786.00;;;;5108131;28;20070;-79
2021/07/31 08:15:05;;;;;;;14.02;7.32;;;;;1.50;101801.00;;;;5108263;28;20077;-79
2021/07/31 08:17:31;;;;;;;23.00;7.50;;;;;1.40;101791.00;;;;5108184;28;20109;-80
2021/07/31 08:19:58;;;;;;;10.80;6.82;;;;;1.40;101792.00;;;;5106432;28;20031;-79
2021/07/31 08:22:25;;;;;;;14.23;6.10;;;;;1.40;101822.00;;;;5107499;28;20023;-79
2021/07/31 08:24:52;;;;;;;10.43;6.72;;;;;1.50;101796.00;;;;5106527;28;20027;-79
2021/07/31 08:27:18;;;;;;;15.85;7.10;;;;;1.60;101797.00;;;;5108364;28;20024;-79
2021/07/31 08:29:45;;;;;;;19.67;7.18;;;;;1.50;101794.00;;;;5107890;28;20056;-80
2021/07/31 08:32:11;;;;;;;16.42;7.28;;;;;1.60;101825.00;;;;5108518;28;20065;-80
2021/07/31 08:34:38;;;;;;;16.23;6.97;;;;;1.60;101784.00;;;;5107518;28;20437;-80
2021/07/31 08:37:04;;;;;;;12.63;6.13;;;;;1.60;101808.00;;;;5108255;28;20023;-80
2021/07/31 08:39:31;;;;;;;9.93;7.03;;;;;1.50;101850.00;;;;5106544;28;20448;-80
2021/07/31 08:41:58;;;;;;;12.40;5.53;;;;;1.70;101791.00;;;;5107712;28;20085;-80
2021/07/31 08:44:25;;;;;;;14.25;6.65;;;;;1.70;101844.00;;;;5107840;28;20078;-80
2021/07/31 08:46:52;;;;;;;12.48;5.90;;;;;1.50;101813.00;;;;5107741;28;20027;-80
2021/07/31 08:49:19;;;;;;;11.63;5.85;;;;;1.40;101831.00;;;;5107809;28;20102;-80
2021/07/31 08:51:47;;;;;;;10.63;5.90;;;;;1.50;101869.00;;;;5106214;28;20038;-79
2021/07/31 08:54:14;;;;;;;15.07;5.95;;;;;1.60;101836.00;;;;5108577;28;20032;-80
2021/07/31 08:56:42;;;;;;;12.80;5.60;;;;;1.60;101854.00;;;;5107936;28;20037;-80
2021/07/31 08:59:09;;;;;;;9.18;6.72;;;;;1.50;101824.00;;;;5107566;28;20023;-80
2021/07/31 09:01:36;;;;;;;11.07;6.50;;;;;1.40;101826.00;;;;5107339;28;20088;-80
2021/07/31 09:04:14;;;;;;;10.35;6.32;;;;;1.40;101825.00;;;;5107566;28;20031;-80
2021/07/31 09:06:44;;;;;;;11.85;5.72;;;;;1.30;101833.00;;;;5107820;28;20027;-80
2021/07/31 09:09:11;;;;;;;8.88;5.63;;;;;1.30;101818.00;;;;5107795;28;20035;-80
2021/07/31 09:11:58;;;;;;;9.85;5.60;;;;;1.30;101858.00;;;;5107590;28;20036;-80
2021/07/31 09:14:25;;;;;;;11.32;5.45;;;;;1.40;101863.00;;;;5107173;28;20036;-80
2021/07/31 09:16:51;;;;;;;17.42;5.72;;;;;1.50;101854.00;;;;5108175;28;20032;-80
2021/07/31 09:19:18;;;;;;;10.95;5.50;;;;;1.40;101869.00;;;;5107703;28;20023;-80
2021/07/31 09:21:46;;;;;;;7.57;5.38;;;;;1.30;101863.00;;;;5107820;28;20130;-80
2021/07/31 09:24:19;;;;;;;14.15;5.18;;;;;1.20;101853.00;;;;5107281;28;20028;-80
2021/07/31 09:26:50;;;;;;;12.15;5.07;;;;;1.30;101852.00;;;;5106701;28;20775;-80
2021/07/31 09:29:31;;;;;;;10.82;4.80;;;;;1.30;101864.00;;;;5105781;28;20082;-79
2021/07/31 09:32:01;;;;;;;6.33;4.60;;;;;1.20;101872.00;;;;5106073;28;20406;-80
2021/07/31 09:34:57;;;;;;;9.82;4.72;;;;;1.20;101870.00;;;;5108678;28;20088;-79
2021/07/31 09:37:25;;;;;;;8.85;4.32;;;;;1.20;101844.00;;;;5110913;28;20110;-80
2021/07/31 09:40:08;;;;;;;8.13;3.72;;;;;1.20;101901.00;;;;5111957;28;20030;-80
2021/07/31 09:42:41;;;;;;;9.90;4.38;;;;;1.20;101892.00;;;;5111310;28;20027;-80
2021/07/31 09:45:11;;;;;;;8.43;4.53;;;;;1.10;101908.00;;;;5109879;28;20032;-80
2021/07/31 09:47:39;;;;;;;8.45;5.10;;;;;1.20;101870.00;;;;5110225;28;20039;-80
2021/07/31 09:50:06;;;;;;;36.72;25.35;;;;;1.20;101873.00;;;;5110651;28;20020;-81
2021/07/31 09:52:33;;;;;;;22.73;13.80;;;;;1.20;101891.00;;;;5110577;28;20062;-81
2021/07/31 09:55:02;;;;;;;22.13;13.98;;;;;1.20;101882.00;;;;5111715;28;20031;-79
2021/07/31 09:57:30;;;;;;;21.55;12.82;;;;;1.10;101900.00;;;;5110624;28;20102;-81
2021/07/31 10:00:01;;;;;;;25.17;14.80;;;;;1.20;101910.00;;;;5110918;28;20032;-81
2021/07/31 10:03:22;;;;;;;48.88;32.42;;;;;1.20;101910.00;;;;5109711;28;20034;-80
2021/07/31 10:05:51;;;;;;;35.65;25.10;;;;;1.20;101929.00;;;;5110959;28;20053;-80
2021/07/31 10:08:18;;;;;;;32.88;26.52;;;;;1.20;101940.00;;;;5110296;28;20046;-80
2021/07/31 10:10:47;;;;;;;31.73;24.38;;;;;1.30;101938.00;;;;5111089;28;20057;-80
2021/07/31 10:13:15;;;;;;;23.80;17.33;;;;;1.30;101943.00;;;;5109692;28;20513;-79
2021/07/31 10:15:42;;;;;;;18.25;15.43;;;;;1.40;101898.00;;;;5109902;28;20034;-79
2021/07/31 10:18:13;;;;;;;19.42;14.10;;;;;1.50;101952.00;;;;5110254;28;20027;-80
2021/07/31 10:20:40;;;;;;;15.33;9.67;;;;;1.50;101951.00;;;;5110332;28;20046;-80
2021/07/31 10:23:07;;;;;;;18.25;11.73;;;;;1.60;101920.00;;;;5111439;27;20669;-80
2021/07/31 10:25:34;;;;;;;23.65;14.90;;;;;1.70;101908.00;;;;5110643;28;20024;-81
2021/07/31 10:28:24;;;;;;;21.05;16.10;;;;;1.70;101960.00;;;;5110866;28;20035;-82
2021/07/31 10:30:51;;;;;;;16.20;12.18;;;;;1.80;101925.00;;;;5109538;28;20051;-80
2021/07/31 10:33:43;;;;;;;18.50;11.07;;;;;1.80;101965.00;;;;5110425;28;20023;-81
2021/07/31 10:36:29;;;;;;;24.95;13.45;;;;;1.70;101974.00;;;;5110459;28;20036;-81
2021/07/31 10:38:57;;;;;;;19.00;12.13;;;;;1.60;101919.00;;;;5109933;28;20031;-81
2021/07/31 10:41:55;;;;;;;17.63;9.23;;;;;1.90;101962.00;;;;5109961;28;20490;-81
2021/07/31 10:44:23;;;;;;;11.32;8.13;;;;;2.10;101939.00;;;;5110200;28;20035;-80
2021/07/31 10:46:51;;;;;;;16.40;7.88;;;;;2.80;101946.00;;;;5109892;28;20059;-80
2021/07/31 10:49:38;;;;;;;12.07;6.00;;;;;5.70;101849.00;;;;5109907;28;20035;-80
2021/07/31 10:52:05;;;;;;;18.40;5.07;;;;;7.30;101759.00;;;;5110073;28;20069;-81
2021/07/31 10:55:02;;;;;;;13.98;5.05;;;;;8.10;101778.00;;;;5110184;28;20059;-81
2021/07/31 10:58:07;;;;;;;11.07;4.07;;;;;8.90;101706.00;;;;5109726;28;20031;-82
2021/07/31 11:00:39;;;;;;;6.85;4.28;;;;;9.10;101704.00;;;;5109006;28;20032;-81
2021/07/31 11:03:21;;;;;;;18.90;4.07;;;;;10.10;101698.00;;;;5110005;28;20027;-81
2021/07/31 11:06:03;;;;;;;11.20;3.60;;;;;10.30;101761.00;;;;5109805;28;20699;-82
2021/07/31 11:08:32;;;;;;;9.23;3.20;;;;;10.30;101725.00;;;;5109840;28;20039;-81
2021/07/31 11:11:20;;;;;;;9.23;3.10;;;;;11.10;101693.00;;;;5109278;28;20035;-82
2021/07/31 11:13:49;;;;;;;8.63;3.90;;;;;11.40;101754.00;;;;5104809;28;20075;-82
2021/07/31 11:16:19;;;;;;;13.70;4.68;;;;;11.50;101753.00;;;;5109184;28;20843;-81
2021/07/31 11:18:58;;;;;;;16.40;4.20;;;;;12.40;101723.00;;;;5109410;28;20042;-82
2021/07/31 11:21:36;;;;;;;23.27;13.57;;;;;12.80;101765.00;;;;5109419;28;20513;-81
2021/07/31 11:24:17;;;;;;;11.38;3.80;;;;;12.50;101710.00;;;;5109081;28;20031;-82
2021/07/31 11:26:54;;;;;;;12.02;4.70;;;;;13.50;101696.00;;;;5109277;27;20028;-82
2021/07/31 11:29:26;;;;;;;8.07;3.22;;;;;13.40;101691.00;;;;5108859;28;20486;-82
2021/07/31 11:31:58;;;;;;;;;;;;;15.10;101674.00;;;;5110072;28;20032;-80
2021/07/31 11:34:25;;;;;;;8.73;4.43;;;;;14.10;101692.00;;;;5109793;28;19918;-81
2021/07/31 11:36:57;;;;;;;15.77;4.22;;;;;14.30;101738.00;;;;5109655;28;20111;-82
2021/07/31 11:39:25;;;;;;;12.43;3.95;;;;;14.90;101726.00;;;;5108446;28;20023;-82
2021/07/31 11:41:57;;;;;;;7.50;3.90;;;;;14.90;101770.00;;;;5108091;28;20114;-80
2021/07/31 11:44:31;;;;;;;11.30;3.67;;;;;15.90;101761.00;;;;5109101;28;20035;-79
2021/07/31 11:46:58;;;;;;;16.30;4.05;;;;;15.90;101748.00;;;;5108773;28;20027;-80
2021/07/31 11:49:25;;;;;;;21.42;6.65;;;;;15.70;101743.00;;;;5108540;28;20032;-80
2021/07/31 11:51:53;;;;;;;13.93;5.07;;;;;15.80;101709.00;;;;5108620;28;20031;-81
2021/07/31 11:54:20;;;;;;;11.18;4.53;;;;;16.40;101719.00;;;;5108875;28;20533;-81
2021/07/31 11:56:48;;;;;;;19.48;5.68;;;;;17.00;101743.00;;;;5108339;28;20106;-81
2021/07/31 11:59:30;;;;;;;14.38;5.55;;;;;17.60;101767.00;;;;5107335;28;20028;-80
2021/07/31 12:01:58;;;;;;;18.58;4.47;;;;;17.40;101736.00;;;;5108248;28;20027;-81
2021/07/31 12:04:52;;;;;;;10.48;4.78;;;;;18.00;101737.00;;;;5106875;28;20517;-81
2021/07/31 12:07:26;;;;;;;4.47;2.35;;;;;17.80;101737.00;;;;5108691;28;20892;-81
2021/07/31 12:10:13;;;;;;;6.03;2.47;;;;;18.40;101730.00;;;;5107160;28;20130;-81
2021/07/31 12:12:42;;;;;;;2.90;2.33;;;;;18.30;101712.00;;;;5106970;28;20529;-81
2021/07/31 12:15:17;;;;;;;12.40;3.38;;;;;18.90;101735.00;;;;5108250;28;20035;-80
2021/07/31 12:18:02;;;;;;;5.15;2.85;;;;;19.60;101798.00;;;;5108485;28;20027;-81
2021/07/31 12:20:41;;;;;;;26.02;9.10;;;;;20.00;101789.00;;;;5108311;28;20045;-81